Connecticut — WCY4995 — position and weather

sailwx.info

Track history (hours):
 
Tides and Currents Weather Stations Pressure Air Temp Water Temp Dewpoint Dewpoint Depression Visibility Wind Speed Wind Dir Waves Ship Positions

Oceanographic research ship Connecticut (USA)

Detailed information on ship capabilities available from University of Delaware's Ocean Information Center.

Owner: CONNECTICUT, STATE OF, GROTON, CT. More information available from US FCC via Universal Licensing System and Coast Guard Vessel Documentation Center.

Last reported at 2018-Dec-12 00:10 UTC. Time now 2018-Dec-18 11:52 UTC.
Position N 41°15' W 072°14'.

Length 27 m; draft 3 m.

Type: Other ship. MMSI: 367359940.

Date/timePositionNaut miles runAvg speedWind from/ knotsBaromVisibWave heightAir tempDewpointWater temp
2018-Dec-12 00:10N 41°15' W 072°14'2 9.9
2018-Dec-12 00:00N 41°14' W 072°16'510.2
2018-Dec-11 23:30N 41°12' W 072°23'510.6
2018-Dec-11 23:00N 41°11' W 072°29'510.7
2018-Dec-11 22:30N 41°09' W 072°36'2 0.3
2018-Dec-11 14:30N 41°09' W 072°39'510.1
2018-Dec-11 14:00N 41°10' W 072°33'510.1
2018-Dec-11 13:29N 41°11' W 072°26'5 9.9
2018-Dec-11 13:00N 41°13' W 072°20'5 9.7
2018-Dec-11 12:30N 41°15' W 072°14'5 8.7
2018-Dec-11 11:55N 41°16' W 072°08'  
2018-Dec-07 21:16N 42°19' W 070°31'3 9.4
2018-Dec-07 21:00N 42°22' W 070°31'5 9.3
2018-Dec-07 20:30N 42°26' W 070°31'5 9.6
2018-Dec-07 20:00N 42°31' W 070°31'510.1
2018-Dec-07 19:30N 42°36' W 070°31'510.4
2018-Dec-07 18:59N 42°41' W 070°33'510.3
2018-Dec-07 18:30N 42°46' W 070°35'510.2
2018-Dec-07 18:00N 42°51' W 070°37'  
2018-Dec-05 11:10N 42°50' W 070°37'1 7.9
2018-Dec-05 11:00N 42°49' W 070°36'4 8.1
2018-Dec-05 10:30N 42°45' W 070°34'4 7.8
2018-Dec-05 10:00N 42°41' W 070°33'4 7.3
2018-Dec-05 09:30N 42°38' W 070°32'4 7.4
2018-Dec-05 09:00N 42°34' W 070°32'4 7.4
2018-Dec-05 08:30N 42°30' W 070°31'4 7.6
2018-Dec-05 07:59N 42°27' W 070°31'4 8.2
2018-Dec-05 07:30N 42°23' W 070°31'4 8.0
2018-Dec-05 07:00N 42°19' W 070°31'  
Track history (hours):
 
Tides and Currents Weather Stations Pressure Air Temp Water Temp Dewpoint Dewpoint Depression Visibility Wind Speed Wind Dir Waves Ship Positions

Oceanographic research ship Connecticut (USA)

Detailed information on ship capabilities available from University of Delaware's Ocean Information Center.

Owner: CONNECTICUT, STATE OF, GROTON, CT. More information available from US FCC via Universal Licensing System and Coast Guard Vessel Documentation Center.

Last reported at 2018-Dec-12 00:10 UTC. Time now 2018-Dec-18 11:52 UTC.
Position N 41°15' W 072°14'.

Length 27 m; draft 3 m.

Type: Other ship. MMSI: 367359940.

Date/timePositionNaut miles runAvg speedWind from/ knotsBaromVisibWave heightAir tempDewpointWater temp
2018-Dec-12 00:10N 41°15' W 072°14'2 9.9
2018-Dec-12 00:00N 41°14' W 072°16'510.2
2018-Dec-11 23:30N 41°12' W 072°23'510.6
2018-Dec-11 23:00N 41°11' W 072°29'510.7
2018-Dec-11 22:30N 41°09' W 072°36'2 0.3
2018-Dec-11 14:30N 41°09' W 072°39'510.1
2018-Dec-11 14:00N 41°10' W 072°33'510.1
2018-Dec-11 13:29N 41°11' W 072°26'5 9.9
2018-Dec-11 13:00N 41°13' W 072°20'5 9.7
2018-Dec-11 12:30N 41°15' W 072°14'5 8.7
2018-Dec-11 11:55N 41°16' W 072°08'  
2018-Dec-07 21:16N 42°19' W 070°31'3 9.4
2018-Dec-07 21:00N 42°22' W 070°31'5 9.3
2018-Dec-07 20:30N 42°26' W 070°31'5 9.6
2018-Dec-07 20:00N 42°31' W 070°31'510.1
2018-Dec-07 19:30N 42°36' W 070°31'510.4
2018-Dec-07 18:59N 42°41' W 070°33'510.3
2018-Dec-07 18:30N 42°46' W 070°35'510.2
2018-Dec-07 18:00N 42°51' W 070°37'  
2018-Dec-05 11:10N 42°50' W 070°37'1 7.9
2018-Dec-05 11:00N 42°49' W 070°36'4 8.1
2018-Dec-05 10:30N 42°45' W 070°34'4 7.8
2018-Dec-05 10:00N 42°41' W 070°33'4 7.3
2018-Dec-05 09:30N 42°38' W 070°32'4 7.4
2018-Dec-05 09:00N 42°34' W 070°32'4 7.4
2018-Dec-05 08:30N 42°30' W 070°31'4 7.6
2018-Dec-05 07:59N 42°27' W 070°31'4 8.2
2018-Dec-05 07:30N 42°23' W 070°31'4 8.0
2018-Dec-05 07:00N 42°19' W 070°31'  

Dump ship's entire track history